sensor_id;sensor_type;location;lat;lon;timestamp;P1;durP1;ratioP1;P2;durP2;ratioP2
67372;SDS011;54257;54.496;18.412;2022-11-15T00:01:09;56.90;;;27.30;;
67372;SDS011;54257;54.496;18.412;2022-11-15T00:03:45;46.90;;;26.30;;
67372;SDS011;54257;54.496;18.412;2022-11-15T00:06:12;47.20;;;26.10;;
67372;SDS011;54257;54.496;18.412;2022-11-15T00:08:39;56.90;;;30.40;;
67372;SDS011;54257;54.496;18.412;2022-11-15T00:11:08;55.40;;;29.20;;
67372;SDS011;54257;54.496;18.412;2022-11-15T00:13:38;55.30;;;31.00;;
67372;SDS011;54257;54.496;18.412;2022-11-15T00:16:05;54.80;;;31.00;;
67372;SDS011;54257;54.496;18.412;2022-11-15T00:18:32;60.40;;;31.80;;
67372;SDS011;54257;54.496;18.412;2022-11-15T00:21:06;52.30;;;29.50;;
67372;SDS011;54257;54.496;18.412;2022-11-15T00:23:34;60.00;;;30.70;;
67372;SDS011;54257;54.496;18.412;2022-11-15T00:26:02;56.20;;;31.00;;
67372;SDS011;54257;54.496;18.412;2022-11-15T00:28:29;53.20;;;31.20;;
67372;SDS011;54257;54.496;18.412;2022-11-15T00:31:00;56.20;;;30.00;;
67372;SDS011;54257;54.496;18.412;2022-11-15T00:33:28;54.90;;;29.80;;
67372;SDS011;54257;54.496;18.412;2022-11-15T00:36:04;60.90;;;32.30;;
67372;SDS011;54257;54.496;18.412;2022-11-15T00:38:36;58.70;;;30.40;;
67372;SDS011;54257;54.496;18.412;2022-11-15T00:41:05;60.10;;;30.70;;
67372;SDS011;54257;54.496;18.412;2022-11-15T00:43:33;55.90;;;29.60;;
67372;SDS011;54257;54.496;18.412;2022-11-15T00:46:00;58.00;;;31.20;;
67372;SDS011;54257;54.496;18.412;2022-11-15T00:48:28;54.20;;;29.50;;
67372;SDS011;54257;54.496;18.412;2022-11-15T00:50:55;54.30;;;30.50;;
67372;SDS011;54257;54.496;18.412;2022-11-15T00:53:22;53.30;;;28.20;;
67372;SDS011;54257;54.496;18.412;2022-11-15T00:55:49;51.60;;;27.50;;
67372;SDS011;54257;54.496;18.412;2022-11-15T00:58:16;54.00;;;27.20;;
67372;SDS011;54257;54.496;18.412;2022-11-15T01:00:43;49.00;;;26.10;;
67372;SDS011;54257;54.496;18.412;2022-11-15T01:03:13;50.20;;;26.50;;
67372;SDS011;54257;54.496;18.412;2022-11-15T01:05:40;53.10;;;26.20;;
67372;SDS011;54257;54.496;18.412;2022-11-15T01:08:11;52.40;;;27.50;;
67372;SDS011;54257;54.496;18.412;2022-11-15T01:10:40;52.00;;;26.80;;
67372;SDS011;54257;54.496;18.412;2022-11-15T01:13:10;60.70;;;30.40;;
67372;SDS011;54257;54.496;18.412;2022-11-15T01:15:40;57.00;;;29.00;;
67372;SDS011;54257;54.496;18.412;2022-11-15T01:18:11;57.90;;;29.50;;
67372;SDS011;54257;54.496;18.412;2022-11-15T01:20:41;58.20;;;30.80;;
67372;SDS011;54257;54.496;18.412;2022-11-15T01:23:09;55.40;;;32.00;;
67372;SDS011;54257;54.496;18.412;2022-11-15T01:25:37;60.60;;;30.10;;
67372;SDS011;54257;54.496;18.412;2022-11-15T01:28:04;52.40;;;26.60;;
67372;SDS011;54257;54.496;18.412;2022-11-15T01:30:31;55.10;;;28.60;;
67372;SDS011;54257;54.496;18.412;2022-11-15T01:32:59;60.80;;;28.00;;
67372;SDS011;54257;54.496;18.412;2022-11-15T01:35:26;54.40;;;27.20;;
67372;SDS011;54257;54.496;18.412;2022-11-15T01:37:53;56.10;;;27.90;;
67372;SDS011;54257;54.496;18.412;2022-11-15T01:40:20;66.40;;;28.70;;
67372;SDS011;54257;54.496;18.412;2022-11-15T01:42:46;59.20;;;27.40;;
67372;SDS011;54257;54.496;18.412;2022-11-15T01:45:14;57.80;;;30.20;;
67372;SDS011;54257;54.496;18.412;2022-11-15T01:47:43;57.10;;;28.40;;
67372;SDS011;54257;54.496;18.412;2022-11-15T01:50:15;64.70;;;30.00;;
67372;SDS011;54257;54.496;18.412;2022-11-15T01:52:48;57.60;;;27.20;;
67372;SDS011;54257;54.496;18.412;2022-11-15T01:57:48;57.20;;;27.50;;
67372;SDS011;54257;54.496;18.412;2022-11-15T02:00:19;56.20;;;27.20;;
67372;SDS011;54257;54.496;18.412;2022-11-15T02:02:46;57.70;;;27.70;;
67372;SDS011;54257;54.496;18.412;2022-11-15T02:05:14;57.30;;;28.90;;
67372;SDS011;54257;54.496;18.412;2022-11-15T02:07:41;57.50;;;29.40;;
67372;SDS011;54257;54.496;18.412;2022-11-15T02:10:10;57.50;;;29.90;;
67372;SDS011;54257;54.496;18.412;2022-11-15T02:12:41;55.30;;;27.90;;
67372;SDS011;54257;54.496;18.412;2022-11-15T02:15:08;58.90;;;29.20;;
67372;SDS011;54257;54.496;18.412;2022-11-15T02:17:44;57.80;;;28.90;;
67372;SDS011;54257;54.496;18.412;2022-11-15T02:20:39;56.80;;;27.20;;
67372;SDS011;54257;54.496;18.412;2022-11-15T02:26:31;52.90;;;26.20;;
67372;SDS011;54257;54.496;18.412;2022-11-15T02:29:06;57.20;;;28.60;;
67372;SDS011;54257;54.496;18.412;2022-11-15T02:40:02;63.30;;;29.30;;
67372;SDS011;54257;54.496;18.412;2022-11-15T02:42:46;66.80;;;31.50;;
67372;SDS011;54257;54.496;18.412;2022-11-15T02:45:44;68.70;;;30.10;;
67372;SDS011;54257;54.496;18.412;2022-11-15T02:48:16;66.20;;;30.20;;
67372;SDS011;54257;54.496;18.412;2022-11-15T02:50:45;56.40;;;29.50;;
67372;SDS011;54257;54.496;18.412;2022-11-15T02:53:14;68.70;;;32.00;;
67372;SDS011;54257;54.496;18.412;2022-11-15T02:55:45;55.30;;;28.70;;
67372;SDS011;54257;54.496;18.412;2022-11-15T03:01:00;50.80;;;26.60;;
67372;SDS011;54257;54.496;18.412;2022-11-15T03:06:29;54.20;;;25.10;;
67372;SDS011;54257;54.496;18.412;2022-11-15T03:09:23;50.50;;;25.90;;
67372;SDS011;54257;54.496;18.412;2022-11-15T03:15:09;47.40;;;24.00;;
67372;SDS011;54257;54.496;18.412;2022-11-15T03:17:51;49.00;;;24.80;;
67372;SDS011;54257;54.496;18.412;2022-11-15T03:20:25;47.20;;;23.70;;
67372;SDS011;54257;54.496;18.412;2022-11-15T03:22:55;54.10;;;26.30;;
67372;SDS011;54257;54.496;18.412;2022-11-15T03:25:28;51.40;;;25.10;;
67372;SDS011;54257;54.496;18.412;2022-11-15T03:27:58;49.70;;;24.30;;
67372;SDS011;54257;54.496;18.412;2022-11-15T03:30:31;48.40;;;24.50;;
67372;SDS011;54257;54.496;18.412;2022-11-15T03:33:02;46.30;;;24.60;;
67372;SDS011;54257;54.496;18.412;2022-11-15T03:35:39;45.50;;;23.00;;
67372;SDS011;54257;54.496;18.412;2022-11-15T03:41:01;52.00;;;24.30;;
67372;SDS011;54257;54.496;18.412;2022-11-15T03:46:01;55.00;;;24.30;;
67372;SDS011;54257;54.496;18.412;2022-11-15T03:48:37;46.60;;;24.30;;
67372;SDS011;54257;54.496;18.412;2022-11-15T03:51:09;56.40;;;25.70;;
67372;SDS011;54257;54.496;18.412;2022-11-15T03:53:37;58.00;;;25.30;;
67372;SDS011;54257;54.496;18.412;2022-11-15T03:56:04;51.70;;;26.90;;
67372;SDS011;54257;54.496;18.412;2022-11-15T03:58:31;53.90;;;26.50;;
67372;SDS011;54257;54.496;18.412;2022-11-15T04:00:58;65.00;;;27.60;;
67372;SDS011;54257;54.496;18.412;2022-11-15T04:03:26;51.60;;;24.40;;
67372;SDS011;54257;54.496;18.412;2022-11-15T04:05:56;57.30;;;26.60;;
67372;SDS011;54257;54.496;18.412;2022-11-15T04:08:23;58.90;;;26.60;;
67372;SDS011;54257;54.496;18.412;2022-11-15T04:10:51;65.70;;;31.10;;
67372;SDS011;54257;54.496;18.412;2022-11-15T04:13:19;60.20;;;30.10;;
67372;SDS011;54257;54.496;18.412;2022-11-15T04:15:46;54.30;;;24.90;;
67372;SDS011;54257;54.496;18.412;2022-11-15T04:18:13;53.50;;;25.90;;
67372;SDS011;54257;54.496;18.412;2022-11-15T04:20:40;48.30;;;22.80;;
67372;SDS011;54257;54.496;18.412;2022-11-15T04:23:25;59.70;;;24.20;;
67372;SDS011;54257;54.496;18.412;2022-11-15T04:26:12;52.60;;;25.30;;
67372;SDS011;54257;54.496;18.412;2022-11-15T04:28:42;50.10;;;24.50;;
67372;SDS011;54257;54.496;18.412;2022-11-15T04:31:28;49.40;;;24.20;;
67372;SDS011;54257;54.496;18.412;2022-11-15T04:33:55;48.00;;;24.90;;
67372;SDS011;54257;54.496;18.412;2022-11-15T04:36:22;53.30;;;24.60;;
67372;SDS011;54257;54.496;18.412;2022-11-15T04:39:08;49.00;;;24.60;;
67372;SDS011;54257;54.496;18.412;2022-11-15T04:41:35;58.40;;;24.60;;
67372;SDS011;54257;54.496;18.412;2022-11-15T04:44:02;52.70;;;23.40;;
67372;SDS011;54257;54.496;18.412;2022-11-15T04:46:29;51.60;;;25.00;;
67372;SDS011;54257;54.496;18.412;2022-11-15T04:48:56;51.70;;;23.90;;
67372;SDS011;54257;54.496;18.412;2022-11-15T04:51:23;53.50;;;24.10;;
67372;SDS011;54257;54.496;18.412;2022-11-15T04:53:50;53.20;;;24.20;;
67372;SDS011;54257;54.496;18.412;2022-11-15T04:56:17;56.70;;;26.50;;
67372;SDS011;54257;54.496;18.412;2022-11-15T04:58:44;49.40;;;23.30;;
67372;SDS011;54257;54.496;18.412;2022-11-15T05:01:12;56.60;;;26.10;;
67372;SDS011;54257;54.496;18.412;2022-11-15T05:03:42;54.10;;;27.00;;
67372;SDS011;54257;54.496;18.412;2022-11-15T05:06:29;49.70;;;24.40;;
67372;SDS011;54257;54.496;18.412;2022-11-15T05:08:57;56.00;;;24.00;;
67372;SDS011;54257;54.496;18.412;2022-11-15T05:11:24;48.80;;;25.60;;
67372;SDS011;54257;54.496;18.412;2022-11-15T05:13:51;52.60;;;25.50;;
67372;SDS011;54257;54.496;18.412;2022-11-15T05:16:19;54.30;;;25.10;;
67372;SDS011;54257;54.496;18.412;2022-11-15T05:18:46;45.90;;;22.70;;
67372;SDS011;54257;54.496;18.412;2022-11-15T05:21:14;54.90;;;24.70;;
67372;SDS011;54257;54.496;18.412;2022-11-15T05:23:41;48.20;;;23.50;;
67372;SDS011;54257;54.496;18.412;2022-11-15T05:26:09;47.20;;;23.20;;
67372;SDS011;54257;54.496;18.412;2022-11-15T05:28:37;56.20;;;24.80;;
67372;SDS011;54257;54.496;18.412;2022-11-15T05:31:05;52.90;;;23.00;;
67372;SDS011;54257;54.496;18.412;2022-11-15T05:33:38;46.90;;;22.10;;
67372;SDS011;54257;54.496;18.412;2022-11-15T05:39:00;39.30;;;20.70;;
67372;SDS011;54257;54.496;18.412;2022-11-15T05:44:14;46.20;;;22.00;;
67372;SDS011;54257;54.496;18.412;2022-11-15T05:46:44;50.10;;;23.60;;
67372;SDS011;54257;54.496;18.412;2022-11-15T05:49:13;41.60;;;22.30;;
67372;SDS011;54257;54.496;18.412;2022-11-15T05:51:45;45.50;;;23.90;;
67372;SDS011;54257;54.496;18.412;2022-11-15T05:54:15;51.30;;;22.90;;
67372;SDS011;54257;54.496;18.412;2022-11-15T05:56:43;53.00;;;24.20;;
67372;SDS011;54257;54.496;18.412;2022-11-15T05:59:11;48.00;;;24.00;;
67372;SDS011;54257;54.496;18.412;2022-11-15T06:01:38;42.70;;;22.00;;
67372;SDS011;54257;54.496;18.412;2022-11-15T06:04:13;42.70;;;21.40;;
67372;SDS011;54257;54.496;18.412;2022-11-15T06:06:41;40.70;;;20.00;;
67372;SDS011;54257;54.496;18.412;2022-11-15T06:09:11;44.90;;;19.70;;
67372;SDS011;54257;54.496;18.412;2022-11-15T06:11:41;42.00;;;20.00;;
67372;SDS011;54257;54.496;18.412;2022-11-15T06:14:09;43.20;;;21.10;;
67372;SDS011;54257;54.496;18.412;2022-11-15T06:16:36;39.80;;;19.80;;
67372;SDS011;54257;54.496;18.412;2022-11-15T06:19:07;36.40;;;19.60;;
67372;SDS011;54257;54.496;18.412;2022-11-15T06:21:40;37.40;;;19.20;;
67372;SDS011;54257;54.496;18.412;2022-11-15T06:24:09;41.80;;;19.90;;
67372;SDS011;54257;54.496;18.412;2022-11-15T06:26:42;40.90;;;19.60;;
67372;SDS011;54257;54.496;18.412;2022-11-15T06:29:13;42.10;;;19.40;;
67372;SDS011;54257;54.496;18.412;2022-11-15T06:31:40;35.90;;;19.40;;
67372;SDS011;54257;54.496;18.412;2022-11-15T06:34:08;32.60;;;18.10;;
67372;SDS011;54257;54.496;18.412;2022-11-15T06:36:36;34.60;;;18.90;;
67372;SDS011;54257;54.496;18.412;2022-11-15T06:39:04;34.80;;;18.30;;
67372;SDS011;54257;54.496;18.412;2022-11-15T06:41:38;34.90;;;18.20;;
67372;SDS011;54257;54.496;18.412;2022-11-15T06:44:06;31.40;;;17.60;;
67372;SDS011;54257;54.496;18.412;2022-11-15T06:46:41;29.80;;;16.60;;
67372;SDS011;54257;54.496;18.412;2022-11-15T06:49:14;33.80;;;17.60;;
67372;SDS011;54257;54.496;18.412;2022-11-15T06:51:44;29.90;;;16.90;;
67372;SDS011;54257;54.496;18.412;2022-11-15T06:54:12;34.30;;;18.00;;
67372;SDS011;54257;54.496;18.412;2022-11-15T06:56:39;32.20;;;17.30;;
67372;SDS011;54257;54.496;18.412;2022-11-15T06:59:07;33.30;;;17.90;;
67372;SDS011;54257;54.496;18.412;2022-11-15T07:01:34;30.30;;;16.20;;
67372;SDS011;54257;54.496;18.412;2022-11-15T07:04:01;25.80;;;14.80;;
67372;SDS011;54257;54.496;18.412;2022-11-15T07:06:28;27.00;;;15.60;;
67372;SDS011;54257;54.496;18.412;2022-11-15T07:08:55;31.60;;;17.00;;
67372;SDS011;54257;54.496;18.412;2022-11-15T07:11:22;28.80;;;16.60;;
67372;SDS011;54257;54.496;18.412;2022-11-15T07:13:49;29.20;;;16.40;;
67372;SDS011;54257;54.496;18.412;2022-11-15T07:16:16;30.10;;;16.50;;
67372;SDS011;54257;54.496;18.412;2022-11-15T07:18:42;28.40;;;15.70;;
67372;SDS011;54257;54.496;18.412;2022-11-15T07:21:10;25.20;;;15.40;;
67372;SDS011;54257;54.496;18.412;2022-11-15T07:23:38;28.20;;;14.90;;
67372;SDS011;54257;54.496;18.412;2022-11-15T07:26:06;25.20;;;14.50;;
67372;SDS011;54257;54.496;18.412;2022-11-15T07:28:35;28.50;;;17.30;;
67372;SDS011;54257;54.496;18.412;2022-11-15T07:31:03;25.00;;;13.90;;
67372;SDS011;54257;54.496;18.412;2022-11-15T07:33:30;31.90;;;17.40;;
67372;SDS011;54257;54.496;18.412;2022-11-15T07:35:58;31.90;;;17.20;;
67372;SDS011;54257;54.496;18.412;2022-11-15T07:38:28;29.10;;;16.80;;
67372;SDS011;54257;54.496;18.412;2022-11-15T07:40:56;24.20;;;15.00;;
67372;SDS011;54257;54.496;18.412;2022-11-15T07:43:28;28.20;;;14.50;;
67372;SDS011;54257;54.496;18.412;2022-11-15T07:45:56;26.10;;;14.40;;
67372;SDS011;54257;54.496;18.412;2022-11-15T07:48:23;27.00;;;14.40;;
67372;SDS011;54257;54.496;18.412;2022-11-15T07:50:50;28.20;;;13.90;;
67372;SDS011;54257;54.496;18.412;2022-11-15T07:53:17;29.20;;;15.20;;
67372;SDS011;54257;54.496;18.412;2022-11-15T07:55:44;29.50;;;14.80;;
67372;SDS011;54257;54.496;18.412;2022-11-15T07:58:14;27.10;;;13.90;;
67372;SDS011;54257;54.496;18.412;2022-11-15T08:00:41;27.70;;;15.20;;
67372;SDS011;54257;54.496;18.412;2022-11-15T08:03:09;30.80;;;14.90;;
67372;SDS011;54257;54.496;18.412;2022-11-15T08:05:41;29.90;;;14.90;;
67372;SDS011;54257;54.496;18.412;2022-11-15T08:08:10;24.30;;;14.20;;
67372;SDS011;54257;54.496;18.412;2022-11-15T08:10:39;25.80;;;14.90;;
67372;SDS011;54257;54.496;18.412;2022-11-15T08:13:08;32.90;;;16.10;;
67372;SDS011;54257;54.496;18.412;2022-11-15T08:15:37;25.20;;;14.10;;
67372;SDS011;54257;54.496;18.412;2022-11-15T08:18:09;20.80;;;12.80;;
67372;SDS011;54257;54.496;18.412;2022-11-15T08:20:38;30.20;;;15.00;;
67372;SDS011;54257;54.496;18.412;2022-11-15T08:23:06;28.50;;;14.40;;
67372;SDS011;54257;54.496;18.412;2022-11-15T08:25:34;24.90;;;13.40;;
67372;SDS011;54257;54.496;18.412;2022-11-15T08:28:05;24.40;;;13.20;;
67372;SDS011;54257;54.496;18.412;2022-11-15T08:30:34;26.50;;;14.50;;
67372;SDS011;54257;54.496;18.412;2022-11-15T08:33:04;23.40;;;13.70;;
67372;SDS011;54257;54.496;18.412;2022-11-15T08:35:31;30.60;;;15.70;;
67372;SDS011;54257;54.496;18.412;2022-11-15T08:37:58;30.60;;;15.70;;
67372;SDS011;54257;54.496;18.412;2022-11-15T08:40:25;32.20;;;15.50;;
67372;SDS011;54257;54.496;18.412;2022-11-15T08:42:54;31.10;;;16.20;;
67372;SDS011;54257;54.496;18.412;2022-11-15T08:45:21;30.60;;;16.00;;
67372;SDS011;54257;54.496;18.412;2022-11-15T08:47:47;29.50;;;15.10;;
67372;SDS011;54257;54.496;18.412;2022-11-15T08:50:15;28.40;;;15.00;;
67372;SDS011;54257;54.496;18.412;2022-11-15T08:52:43;27.00;;;15.90;;
67372;SDS011;54257;54.496;18.412;2022-11-15T08:55:10;26.90;;;14.00;;
67372;SDS011;54257;54.496;18.412;2022-11-15T08:57:37;26.10;;;15.60;;
67372;SDS011;54257;54.496;18.412;2022-11-15T09:00:04;26.40;;;15.80;;
67372;SDS011;54257;54.496;18.412;2022-11-15T09:02:32;30.40;;;16.70;;
67372;SDS011;54257;54.496;18.412;2022-11-15T09:04:59;28.10;;;16.60;;
67372;SDS011;54257;54.496;18.412;2022-11-15T09:07:25;35.40;;;19.70;;
67372;SDS011;54257;54.496;18.412;2022-11-15T09:09:53;33.00;;;19.40;;
67372;SDS011;54257;54.496;18.412;2022-11-15T09:12:20;26.60;;;16.50;;
67372;SDS011;54257;54.496;18.412;2022-11-15T09:14:48;35.30;;;20.00;;
67372;SDS011;54257;54.496;18.412;2022-11-15T09:17:15;27.90;;;15.70;;
67372;SDS011;54257;54.496;18.412;2022-11-15T09:19:42;27.30;;;14.30;;
67372;SDS011;54257;54.496;18.412;2022-11-15T09:22:09;28.60;;;17.00;;
67372;SDS011;54257;54.496;18.412;2022-11-15T09:24:36;29.40;;;17.50;;
67372;SDS011;54257;54.496;18.412;2022-11-15T09:27:03;29.30;;;18.00;;
67372;SDS011;54257;54.496;18.412;2022-11-15T09:29:30;31.50;;;17.90;;
67372;SDS011;54257;54.496;18.412;2022-11-15T09:31:58;28.30;;;15.10;;
67372;SDS011;54257;54.496;18.412;2022-11-15T09:34:25;30.90;;;16.60;;
67372;SDS011;54257;54.496;18.412;2022-11-15T09:36:52;25.50;;;14.30;;
67372;SDS011;54257;54.496;18.412;2022-11-15T09:39:19;39.70;;;22.20;;
67372;SDS011;54257;54.496;18.412;2022-11-15T09:42:08;30.90;;;19.60;;
67372;SDS011;54257;54.496;18.412;2022-11-15T09:47:54;30.90;;;17.20;;
67372;SDS011;54257;54.496;18.412;2022-11-15T09:53:27;36.90;;;21.10;;
67372;SDS011;54257;54.496;18.412;2022-11-15T09:56:00;30.80;;;17.90;;
67372;SDS011;54257;54.496;18.412;2022-11-15T10:01:32;27.90;;;15.50;;
67372;SDS011;54257;54.496;18.412;2022-11-15T10:04:08;24.40;;;15.00;;
67372;SDS011;54257;54.496;18.412;2022-11-15T10:06:36;30.20;;;14.90;;
67372;SDS011;54257;54.496;18.412;2022-11-15T10:11:55;23.90;;;13.80;;
67372;SDS011;54257;54.496;18.412;2022-11-15T10:14:24;27.50;;;15.00;;
67372;SDS011;54257;54.496;18.412;2022-11-15T10:19:50;27.00;;;14.80;;
67372;SDS011;54257;54.496;18.412;2022-11-15T10:27:39;31.60;;;16.30;;
67372;SDS011;54257;54.496;18.412;2022-11-15T10:30:14;33.10;;;17.90;;
67372;SDS011;54257;54.496;18.412;2022-11-15T10:32:44;28.70;;;16.30;;
67372;SDS011;54257;54.496;18.412;2022-11-15T10:35:23;32.60;;;16.30;;
67372;SDS011;54257;54.496;18.412;2022-11-15T10:38:04;33.40;;;17.10;;
67372;SDS011;54257;54.496;18.412;2022-11-15T10:40:36;30.20;;;17.60;;
67372;SDS011;54257;54.496;18.412;2022-11-15T10:43:06;34.10;;;17.90;;
67372;SDS011;54257;54.496;18.412;2022-11-15T10:45:40;29.70;;;17.30;;
67372;SDS011;54257;54.496;18.412;2022-11-15T10:50:39;34.20;;;17.60;;
67372;SDS011;54257;54.496;18.412;2022-11-15T10:53:22;29.10;;;17.00;;
67372;SDS011;54257;54.496;18.412;2022-11-15T10:55:53;33.60;;;19.70;;
67372;SDS011;54257;54.496;18.412;2022-11-15T11:01:14;35.80;;;19.30;;
67372;SDS011;54257;54.496;18.412;2022-11-15T11:04:01;36.40;;;20.40;;
67372;SDS011;54257;54.496;18.412;2022-11-15T11:06:30;30.90;;;19.00;;
67372;SDS011;54257;54.496;18.412;2022-11-15T11:09:21;36.10;;;17.80;;
67372;SDS011;54257;54.496;18.412;2022-11-15T11:11:51;35.00;;;18.70;;
67372;SDS011;54257;54.496;18.412;2022-11-15T11:14:22;37.50;;;19.40;;
67372;SDS011;54257;54.496;18.412;2022-11-15T11:19:48;39.80;;;21.00;;
67372;SDS011;54257;54.496;18.412;2022-11-15T11:22:31;42.80;;;20.80;;
67372;SDS011;54257;54.496;18.412;2022-11-15T11:39:30;37.20;;;20.20;;
67372;SDS011;54257;54.496;18.412;2022-11-15T11:47:41;36.30;;;19.90;;
67372;SDS011;54257;54.496;18.412;2022-11-15T11:50:21;35.70;;;19.20;;
67372;SDS011;54257;54.496;18.412;2022-11-15T11:55:36;30.90;;;17.00;;
67372;SDS011;54257;54.496;18.412;2022-11-15T12:00:53;33.00;;;18.50;;
67372;SDS011;54257;54.496;18.412;2022-11-15T12:06:01;35.50;;;19.20;;
67372;SDS011;54257;54.496;18.412;2022-11-15T12:08:38;31.90;;;18.10;;
67372;SDS011;54257;54.496;18.412;2022-11-15T12:11:14;35.70;;;19.10;;
67372;SDS011;54257;54.496;18.412;2022-11-15T12:14:01;38.50;;;20.00;;
67372;SDS011;54257;54.496;18.412;2022-11-15T12:16:32;35.90;;;19.80;;
67372;SDS011;54257;54.496;18.412;2022-11-15T12:19:01;35.00;;;19.40;;
67372;SDS011;54257;54.496;18.412;2022-11-15T12:24:43;36.10;;;19.10;;
67372;SDS011;54257;54.496;18.412;2022-11-15T12:27:20;33.70;;;19.80;;
67372;SDS011;54257;54.496;18.412;2022-11-15T12:30:22;36.40;;;19.50;;
67372;SDS011;54257;54.496;18.412;2022-11-15T12:32:57;32.80;;;18.00;;
67372;SDS011;54257;54.496;18.412;2022-11-15T12:35:40;36.10;;;19.30;;
67372;SDS011;54257;54.496;18.412;2022-11-15T12:38:10;34.90;;;18.90;;
67372;SDS011;54257;54.496;18.412;2022-11-15T12:40:39;37.90;;;20.60;;
67372;SDS011;54257;54.496;18.412;2022-11-15T12:43:43;39.20;;;20.50;;
67372;SDS011;54257;54.496;18.412;2022-11-15T12:46:12;41.20;;;21.30;;
67372;SDS011;54257;54.496;18.412;2022-11-15T12:48:50;38.70;;;21.20;;
67372;SDS011;54257;54.496;18.412;2022-11-15T12:59:51;40.30;;;21.90;;
67372;SDS011;54257;54.496;18.412;2022-11-15T13:02:35;39.50;;;21.40;;
67372;SDS011;54257;54.496;18.412;2022-11-15T13:10:28;41.50;;;22.40;;
67372;SDS011;54257;54.496;18.412;2022-11-15T13:13:01;39.30;;;21.90;;
67372;SDS011;54257;54.496;18.412;2022-11-15T13:17:57;43.50;;;22.20;;
67372;SDS011;54257;54.496;18.412;2022-11-15T13:33:16;44.70;;;24.00;;
67372;SDS011;54257;54.496;18.412;2022-11-15T13:35:48;44.90;;;25.00;;
67372;SDS011;54257;54.496;18.412;2022-11-15T13:38:25;52.80;;;26.50;;
67372;SDS011;54257;54.496;18.412;2022-11-15T13:40:53;45.40;;;25.10;;
67372;SDS011;54257;54.496;18.412;2022-11-15T13:49:08;56.00;;;25.80;;
67372;SDS011;54257;54.496;18.412;2022-11-15T13:56:39;49.90;;;25.30;;
67372;SDS011;54257;54.496;18.412;2022-11-15T13:59:49;46.80;;;26.00;;
67372;SDS011;54257;54.496;18.412;2022-11-15T14:02:13;43.80;;;23.60;;
67372;SDS011;54257;54.496;18.412;2022-11-15T14:04:48;49.90;;;24.50;;
67372;SDS011;54257;54.496;18.412;2022-11-15T14:07:22;46.30;;;24.80;;
67372;SDS011;54257;54.496;18.412;2022-11-15T14:09:51;52.50;;;25.90;;
67372;SDS011;54257;54.496;18.412;2022-11-15T14:14:54;45.80;;;24.10;;
67372;SDS011;54257;54.496;18.412;2022-11-15T14:19:58;46.70;;;26.00;;
67372;SDS011;54257;54.496;18.412;2022-11-15T14:22:27;50.50;;;26.30;;
67372;SDS011;54257;54.496;18.412;2022-11-15T14:25:24;47.80;;;24.60;;
67372;SDS011;54257;54.496;18.412;2022-11-15T14:30:57;47.70;;;23.30;;
67372;SDS011;54257;54.496;18.412;2022-11-15T14:33:29;50.90;;;24.40;;
67372;SDS011;54257;54.496;18.412;2022-11-15T14:36:05;43.60;;;21.90;;
67372;SDS011;54257;54.496;18.412;2022-11-15T14:38:46;50.20;;;25.00;;
67372;SDS011;54257;54.496;18.412;2022-11-15T14:41:23;43.20;;;24.30;;
67372;SDS011;54257;54.496;18.412;2022-11-15T14:43:52;37.90;;;21.10;;
67372;SDS011;54257;54.496;18.412;2022-11-15T14:46:19;35.40;;;20.20;;
67372;SDS011;54257;54.496;18.412;2022-11-15T14:48:46;37.60;;;20.60;;
67372;SDS011;54257;54.496;18.412;2022-11-15T14:51:14;35.70;;;20.10;;
67372;SDS011;54257;54.496;18.412;2022-11-15T14:53:45;34.90;;;19.10;;
67372;SDS011;54257;54.496;18.412;2022-11-15T14:56:13;34.40;;;19.60;;
67372;SDS011;54257;54.496;18.412;2022-11-15T14:58:41;36.60;;;19.20;;
67372;SDS011;54257;54.496;18.412;2022-11-15T15:01:13;35.00;;;19.60;;
67372;SDS011;54257;54.496;18.412;2022-11-15T15:03:44;25.70;;;15.70;;
67372;SDS011;54257;54.496;18.412;2022-11-15T15:06:11;28.50;;;17.00;;
67372;SDS011;54257;54.496;18.412;2022-11-15T15:08:40;27.80;;;15.10;;
67372;SDS011;54257;54.496;18.412;2022-11-15T15:11:12;32.40;;;16.80;;
67372;SDS011;54257;54.496;18.412;2022-11-15T15:13:42;28.00;;;16.00;;
67372;SDS011;54257;54.496;18.412;2022-11-15T15:16:09;33.10;;;17.80;;
67372;SDS011;54257;54.496;18.412;2022-11-15T15:18:36;32.80;;;15.70;;
67372;SDS011;54257;54.496;18.412;2022-11-15T15:21:20;32.20;;;17.30;;
67372;SDS011;54257;54.496;18.412;2022-11-15T15:23:51;29.90;;;16.70;;
67372;SDS011;54257;54.496;18.412;2022-11-15T15:26:20;23.80;;;15.30;;
67372;SDS011;54257;54.496;18.412;2022-11-15T15:28:49;26.40;;;15.60;;
67372;SDS011;54257;54.496;18.412;2022-11-15T15:31:17;29.90;;;16.10;;
67372;SDS011;54257;54.496;18.412;2022-11-15T15:33:45;28.80;;;15.80;;
67372;SDS011;54257;54.496;18.412;2022-11-15T15:36:16;27.00;;;14.80;;
67372;SDS011;54257;54.496;18.412;2022-11-15T15:38:44;28.00;;;16.70;;
67372;SDS011;54257;54.496;18.412;2022-11-15T15:41:13;28.50;;;15.40;;
67372;SDS011;54257;54.496;18.412;2022-11-15T15:43:41;26.00;;;14.60;;
67372;SDS011;54257;54.496;18.412;2022-11-15T15:46:13;27.10;;;14.30;;
67372;SDS011;54257;54.496;18.412;2022-11-15T15:48:41;23.80;;;15.00;;
67372;SDS011;54257;54.496;18.412;2022-11-15T15:51:09;22.20;;;13.30;;
67372;SDS011;54257;54.496;18.412;2022-11-15T15:53:36;25.50;;;13.70;;
67372;SDS011;54257;54.496;18.412;2022-11-15T15:56:03;30.00;;;16.70;;
67372;SDS011;54257;54.496;18.412;2022-11-15T15:58:31;24.40;;;13.60;;
67372;SDS011;54257;54.496;18.412;2022-11-15T16:00:58;19.80;;;12.30;;
67372;SDS011;54257;54.496;18.412;2022-11-15T16:03:25;23.20;;;13.30;;
67372;SDS011;54257;54.496;18.412;2022-11-15T16:05:54;22.70;;;13.50;;
67372;SDS011;54257;54.496;18.412;2022-11-15T16:08:23;23.40;;;13.50;;
67372;SDS011;54257;54.496;18.412;2022-11-15T16:10:53;25.70;;;13.80;;
67372;SDS011;54257;54.496;18.412;2022-11-15T16:13:20;26.10;;;14.70;;
67372;SDS011;54257;54.496;18.412;2022-11-15T16:15:48;24.80;;;13.80;;
67372;SDS011;54257;54.496;18.412;2022-11-15T16:18:19;23.30;;;13.80;;
67372;SDS011;54257;54.496;18.412;2022-11-15T16:20:47;26.60;;;13.20;;
67372;SDS011;54257;54.496;18.412;2022-11-15T16:23:23;26.90;;;14.70;;
67372;SDS011;54257;54.496;18.412;2022-11-15T16:25:51;21.20;;;14.60;;
67372;SDS011;54257;54.496;18.412;2022-11-15T16:28:26;23.10;;;12.60;;
67372;SDS011;54257;54.496;18.412;2022-11-15T16:31:02;21.90;;;13.20;;
67372;SDS011;54257;54.496;18.412;2022-11-15T16:33:37;24.30;;;13.90;;
67372;SDS011;54257;54.496;18.412;2022-11-15T16:36:05;24.30;;;14.30;;
67372;SDS011;54257;54.496;18.412;2022-11-15T16:38:40;24.70;;;15.50;;
67372;SDS011;54257;54.496;18.412;2022-11-15T16:41:07;26.60;;;15.40;;
67372;SDS011;54257;54.496;18.412;2022-11-15T16:43:34;21.30;;;14.80;;
67372;SDS011;54257;54.496;18.412;2022-11-15T16:46:15;24.70;;;14.90;;
67372;SDS011;54257;54.496;18.412;2022-11-15T16:48:45;25.40;;;16.40;;
67372;SDS011;54257;54.496;18.412;2022-11-15T16:51:12;28.50;;;16.20;;